createdAt,value
2023-07-24T00:00:16.491Z,95723.19
2023-07-24T00:02:45.285Z,95717.59
2023-07-24T00:05:15.636Z,95719.75
2023-07-24T00:08:03.205Z,95716.00
2023-07-24T00:10:32.202Z,95722.19
2023-07-24T00:13:02.658Z,95716.00
2023-07-24T00:15:31.637Z,95715.81
2023-07-24T00:18:00.366Z,95704.78
2023-07-24T00:20:31.058Z,95710.38
2023-07-24T00:22:59.855Z,95714.13
2023-07-24T00:25:31.557Z,95710.13
2023-07-24T00:28:00.581Z,95704.72
2023-07-24T00:30:29.961Z,95702.56
2023-07-24T00:32:58.834Z,95706.31
2023-07-24T00:35:28.046Z,95703.53
2023-07-24T00:37:58.773Z,95701.78
2023-07-24T00:40:27.634Z,95704.03
2023-07-24T00:42:56.759Z,95704.84
2023-07-24T00:45:25.612Z,95703.06
2023-07-24T00:47:54.416Z,95692.50
2023-07-24T00:50:23.719Z,95695.72
2023-07-24T00:52:52.460Z,95694.09
2023-07-24T00:55:22.605Z,95692.50
2023-07-24T00:57:52.395Z,95683.88
2023-07-24T01:00:21.492Z,95692.50
2023-07-24T01:02:51.331Z,95691.75
2023-07-24T01:05:20.491Z,95684.41
2023-07-24T01:07:49.809Z,95690.63
2023-07-24T01:10:18.470Z,95680.94
2023-07-24T01:12:54.154Z,95677.56
2023-07-24T01:15:27.474Z,95675.56
2023-07-24T01:18:02.635Z,95666.59
2023-07-24T01:20:31.931Z,95659.44
2023-07-24T01:23:15.382Z,95662.22
2023-07-24T01:25:59.709Z,95656.84
2023-07-24T01:28:28.826Z,95637.78
2023-07-24T01:30:58.860Z,95650.28
2023-07-24T01:33:27.663Z,95643.28
2023-07-24T01:35:58.516Z,95636.31
2023-07-24T01:38:30.069Z,95630.50
2023-07-24T01:41:00.569Z,95625.84
2023-07-24T01:43:29.580Z,95626.03
2023-07-24T01:45:58.918Z,95625.41
2023-07-24T01:48:27.612Z,95622.38
2023-07-24T01:50:56.479Z,95617.56
2023-07-24T01:53:25.071Z,95617.13
2023-07-24T01:55:54.154Z,95621.84
2023-07-24T01:58:24.406Z,95620.78
2023-07-24T02:00:53.249Z,95616.22
2023-07-24T02:03:22.148Z,95614.78
2023-07-24T02:05:53.100Z,95620.16
2023-07-24T02:08:21.793Z,95608.16
2023-07-24T02:10:52.414Z,95608.97
2023-07-24T02:13:20.944Z,95610.78
2023-07-24T02:15:51.212Z,95614.06
2023-07-24T02:18:20.033Z,95601.91
2023-07-24T02:20:52.085Z,95606.66
2023-07-24T02:23:20.800Z,95600.19
2023-07-24T02:25:53.652Z,95606.03
2023-07-24T02:28:22.113Z,95611.84
2023-07-24T02:30:53.342Z,95600.47
2023-07-24T02:33:22.194Z,95599.31
2023-07-24T02:35:53.718Z,95595.47
2023-07-24T02:38:22.308Z,95590.81
2023-07-24T02:40:51.374Z,95597.16
2023-07-24T02:43:20.643Z,95596.28
2023-07-24T02:45:54.408Z,95594.59
2023-07-24T02:48:22.984Z,95595.22
2023-07-24T02:50:52.310Z,95599.22
2023-07-24T02:53:20.958Z,95599.88
2023-07-24T02:56:08.251Z,95603.28
2023-07-24T02:58:37.112Z,95595.84
2023-07-24T03:01:08.468Z,95598.78
2023-07-24T03:03:37.775Z,95596.56
2023-07-24T03:06:06.674Z,95594.31
2023-07-24T03:08:35.524Z,95591.56
2023-07-24T03:11:07.218Z,95589.41
2023-07-24T03:13:36.202Z,95590.66
2023-07-24T03:16:04.887Z,95589.28
2023-07-24T03:18:35.536Z,95590.38
2023-07-24T03:21:04.356Z,95585.63
2023-07-24T03:23:33.270Z,95581.69
2023-07-24T03:26:01.964Z,95579.50
2023-07-24T03:28:30.696Z,95577.19
2023-07-24T03:30:59.734Z,95584.44
2023-07-24T03:33:28.633Z,95577.63
2023-07-24T03:35:59.043Z,95571.00
2023-07-24T03:38:27.541Z,95572.16
2023-07-24T03:40:56.290Z,95577.97
2023-07-24T03:43:25.982Z,95576.56
2023-07-24T03:45:54.852Z,95572.16
2023-07-24T03:48:23.907Z,95572.16
2023-07-24T03:50:52.530Z,95573.16
2023-07-24T03:53:22.918Z,95567.59
2023-07-24T03:55:52.231Z,95569.28
2023-07-24T03:58:21.272Z,95563.34
2023-07-24T04:00:51.394Z,95556.00
2023-07-24T04:03:19.866Z,95561.25
2023-07-24T04:05:48.589Z,95562.50
2023-07-24T04:08:17.792Z,95557.56
2023-07-24T04:10:48.131Z,95558.81
2023-07-24T04:13:17.347Z,95553.50
2023-07-24T04:15:46.475Z,95553.59
2023-07-24T04:18:35.467Z,95551.66
2023-07-24T04:21:04.431Z,95554.94
2023-07-24T04:23:33.507Z,95559.41
2023-07-24T04:26:07.640Z,95557.47
2023-07-24T04:28:38.126Z,95553.28
2023-07-24T04:31:12.030Z,95547.13
2023-07-24T04:33:41.318Z,95549.97
2023-07-24T04:36:12.653Z,95550.00
2023-07-24T04:38:41.916Z,95546.84
2023-07-24T04:41:12.186Z,95546.91
2023-07-24T04:43:41.056Z,95545.50
2023-07-24T04:46:09.696Z,95543.31
2023-07-24T04:48:39.077Z,95542.34
2023-07-24T04:51:11.788Z,95541.34
2023-07-24T04:53:40.441Z,95533.72
2023-07-24T04:56:13.235Z,95533.72
2023-07-24T04:58:44.671Z,95534.53
2023-07-24T05:01:13.364Z,95541.53
2023-07-24T05:03:42.206Z,95540.91
2023-07-24T05:06:13.667Z,95534.91
2023-07-24T05:08:45.310Z,95533.13
2023-07-24T05:11:15.575Z,95532.72
2023-07-24T05:13:44.540Z,95527.38
2023-07-24T05:16:14.461Z,95529.84
2023-07-24T05:18:43.638Z,95533.72
2023-07-24T05:21:12.485Z,95530.94
2023-07-24T05:23:41.206Z,95532.38
2023-07-24T05:26:09.726Z,95535.22
2023-07-24T05:28:39.867Z,95534.50
2023-07-24T05:31:09.442Z,95528.13
2023-07-24T05:33:38.205Z,95534.16
2023-07-24T05:36:10.146Z,95529.84
2023-07-24T05:38:39.083Z,95536.88
2023-07-24T05:41:26.214Z,95537.09
2023-07-24T05:43:56.808Z,95537.91
2023-07-24T05:46:25.668Z,95531.69
2023-07-24T05:48:54.889Z,95532.72
2023-07-24T05:51:23.598Z,95532.72
2023-07-24T05:53:52.402Z,95538.31
2023-07-24T05:56:21.911Z,95532.09
2023-07-24T05:58:52.236Z,95533.91
2023-07-24T06:01:22.384Z,95540.53
2023-07-24T06:03:51.191Z,95533.72
2023-07-24T06:06:20.857Z,95546.34
2023-07-24T06:08:49.768Z,95535.13
2023-07-24T06:11:18.882Z,95523.31
2023-07-24T06:13:47.445Z,95524.06
2023-07-24T06:16:15.965Z,95512.44
2023-07-24T06:18:46.266Z,95519.44
2023-07-24T06:21:14.918Z,95512.19
2023-07-24T06:23:43.733Z,95514.78
2023-07-24T06:26:12.420Z,95508.47
2023-07-24T06:28:41.189Z,95499.78
2023-07-24T06:31:10.044Z,95497.88
2023-07-24T06:33:38.915Z,95495.34
2023-07-24T06:36:13.750Z,95499.69
2023-07-24T06:39:00.082Z,95489.34
2023-07-24T06:41:30.801Z,95479.75
2023-07-24T06:43:59.547Z,95477.00
2023-07-24T06:46:28.323Z,95471.41
2023-07-24T06:48:57.730Z,95472.22
2023-07-24T06:51:27.552Z,95469.28
2023-07-24T06:53:56.393Z,95470.94
2023-07-24T06:56:24.945Z,95468.03
2023-07-24T06:58:54.715Z,95470.84
2023-07-24T07:01:23.444Z,95471.03
2023-07-24T07:03:52.918Z,95469.44
2023-07-24T07:08:54.831Z,95473.31
2023-07-24T07:11:23.729Z,95469.13
2023-07-24T07:13:52.752Z,95464.84
2023-07-24T07:16:24.170Z,95461.97
2023-07-24T07:18:52.726Z,95461.38
2023-07-24T07:21:22.259Z,95455.72
2023-07-24T07:23:50.821Z,95446.09
2023-07-24T07:26:21.919Z,95450.16
2023-07-24T07:28:51.030Z,95448.53
2023-07-24T07:31:19.461Z,95458.81
2023-07-24T07:33:48.179Z,95467.25
2023-07-24T07:36:16.994Z,95460.00
2023-07-24T07:38:46.003Z,95451.75
2023-07-24T07:41:15.186Z,95454.63
2023-07-24T07:43:45.889Z,95447.38
2023-07-24T07:46:16.088Z,95444.50
2023-07-24T07:48:46.400Z,95445.06
2023-07-24T07:51:17.928Z,95437.00
2023-07-24T07:53:47.271Z,95435.66
2023-07-24T07:56:18.073Z,95428.88
2023-07-24T07:58:50.625Z,95423.06
2023-07-24T08:01:20.378Z,95425.91
2023-07-24T08:03:50.102Z,95431.13
2023-07-24T08:06:45.475Z,95437.16
2023-07-24T08:09:14.299Z,95445.09
2023-07-24T08:11:43.873Z,95436.50
2023-07-24T08:14:13.859Z,95432.88
2023-07-24T08:16:43.016Z,95430.00
2023-07-24T08:19:11.796Z,95426.00
2023-07-24T08:21:41.665Z,95429.44
2023-07-24T08:24:10.875Z,95422.09
2023-07-24T08:26:40.047Z,95416.66
2023-07-24T08:29:09.907Z,95421.31
2023-07-24T08:31:40.164Z,95422.13
2023-07-24T08:34:09.606Z,95418.09
2023-07-24T08:36:39.993Z,95411.56
2023-07-24T08:39:09.075Z,95406.59
2023-07-24T08:41:40.006Z,95396.28
2023-07-24T08:44:11.074Z,95399.59
2023-07-24T08:46:42.857Z,95387.88
2023-07-24T08:49:14.828Z,95390.91
2023-07-24T08:51:44.267Z,95382.03
2023-07-24T08:54:13.596Z,95377.66
2023-07-24T08:56:43.151Z,95382.28
2023-07-24T08:59:11.786Z,95386.19
2023-07-24T09:01:42.131Z,95388.06
2023-07-24T09:04:10.880Z,95389.59
2023-07-24T09:06:43.726Z,95388.31
2023-07-24T09:09:16.672Z,95390.56
2023-07-24T09:11:49.658Z,95388.56
2023-07-24T09:14:25.984Z,95381.28
2023-07-24T09:17:07.286Z,95386.88
2023-07-24T09:19:39.348Z,95395.50
2023-07-24T09:22:14.016Z,95382.00
2023-07-24T09:24:53.460Z,95373.22
2023-07-24T09:27:22.917Z,95367.47
2023-07-24T09:29:51.438Z,95356.41
2023-07-24T09:32:29.591Z,95353.88
2023-07-24T09:34:58.302Z,95344.66
2023-07-24T09:37:29.071Z,95347.38
2023-07-24T09:40:00.234Z,95344.06
2023-07-24T09:42:33.571Z,95326.38
2023-07-24T09:45:03.276Z,95335.69
2023-07-24T09:47:55.945Z,95328.34
2023-07-24T09:50:26.810Z,95317.78
2023-07-24T09:52:56.999Z,95317.00
2023-07-24T09:55:30.476Z,95307.72
2023-07-24T09:57:59.747Z,95300.25
2023-07-24T10:00:28.710Z,95297.06
2023-07-24T10:03:01.044Z,95300.25
2023-07-24T10:05:30.835Z,95310.50
2023-07-24T10:07:59.951Z,95313.97
2023-07-24T10:10:52.380Z,95305.00
2023-07-24T10:13:22.238Z,95296.75
2023-07-24T10:15:51.250Z,95291.41
2023-07-24T10:18:29.257Z,95279.06
2023-07-24T10:21:03.073Z,95263.59
2023-07-24T10:23:32.387Z,95257.47
2023-07-24T10:26:06.005Z,95248.06
2023-07-24T10:28:36.433Z,95242.41
2023-07-24T10:31:07.248Z,95240.72
2023-07-24T10:33:42.576Z,95237.97
2023-07-24T10:36:14.520Z,95229.94
2023-07-24T10:38:47.234Z,95223.97
2023-07-24T10:41:15.819Z,95221.63
2023-07-24T10:43:49.886Z,95211.53
2023-07-24T10:46:20.498Z,95199.00
2023-07-24T10:48:53.228Z,95192.75
2023-07-24T10:51:22.752Z,95191.28
2023-07-24T10:53:52.059Z,95188.22
2023-07-24T10:56:21.712Z,95189.09
2023-07-24T10:58:50.681Z,95189.03
2023-07-24T11:01:20.522Z,95176.22
2023-07-24T11:03:52.533Z,95176.56
2023-07-24T11:06:23.427Z,95167.06
2023-07-24T11:08:57.717Z,95169.31
2023-07-24T11:11:31.154Z,95162.56
2023-07-24T11:14:01.530Z,95158.16
2023-07-24T11:16:31.650Z,95164.56
2023-07-24T11:19:02.423Z,95154.84
2023-07-24T11:21:32.103Z,95151.16
2023-07-24T11:24:03.073Z,95154.41
2023-07-24T11:26:33.957Z,95142.59
2023-07-24T11:29:03.983Z,95146.88
2023-07-24T11:31:40.669Z,95146.78
2023-07-24T11:34:11.902Z,95144.88
2023-07-24T11:36:41.601Z,95136.63
2023-07-24T11:39:11.690Z,95133.88
2023-07-24T11:41:43.562Z,95129.72
2023-07-24T11:44:13.078Z,95140.59
2023-07-24T11:46:42.271Z,95147.19
2023-07-24T11:49:18.332Z,95140.56
2023-07-24T11:51:48.196Z,95136.00
2023-07-24T11:54:17.296Z,95132.91
2023-07-24T11:56:46.838Z,95134.84
2023-07-24T11:59:18.118Z,95130.44
2023-07-24T12:01:49.485Z,95125.91
2023-07-24T12:04:21.387Z,95115.53
2023-07-24T12:06:51.788Z,95114.28
2023-07-24T12:09:21.823Z,95103.91
2023-07-24T12:11:54.946Z,95114.22
2023-07-24T12:14:24.816Z,95102.94
2023-07-24T12:17:04.621Z,95103.00
2023-07-24T12:19:38.073Z,95101.00
2023-07-24T12:22:08.891Z,95102.69
2023-07-24T12:24:38.749Z,95096.81
2023-07-24T12:27:08.856Z,95102.84
2023-07-24T12:29:38.910Z,95101.25
2023-07-24T12:32:10.389Z,95102.31
2023-07-24T12:34:41.176Z,95103.56
2023-07-24T12:37:30.349Z,95107.88
2023-07-24T12:40:00.980Z,95109.53
2023-07-24T12:42:31.313Z,95111.69
2023-07-24T12:45:01.677Z,95105.81
2023-07-24T12:47:32.597Z,95102.91
2023-07-24T12:50:07.683Z,95103.28
2023-07-24T12:52:38.699Z,95097.16
2023-07-24T12:55:10.870Z,95095.19
2023-07-24T12:57:41.179Z,95091.25
2023-07-24T13:00:12.860Z,95083.53
2023-07-24T13:02:44.242Z,95095.03
2023-07-24T13:05:16.572Z,95083.81
2023-07-24T13:07:47.997Z,95084.59
2023-07-24T13:10:18.571Z,95080.97
2023-07-24T13:12:50.757Z,95077.28
2023-07-24T13:15:21.162Z,95073.69
2023-07-24T13:17:52.769Z,95062.13
2023-07-24T13:20:24.730Z,95061.41
2023-07-24T13:22:55.961Z,95059.53
2023-07-24T13:25:25.999Z,95057.81
2023-07-24T13:27:56.459Z,95052.00
2023-07-24T13:30:27.233Z,95047.81
2023-07-24T13:32:57.652Z,95046.72
2023-07-24T13:35:29.965Z,95044.63
2023-07-24T13:38:00.727Z,95042.84
2023-07-24T13:40:30.579Z,95042.94
2023-07-24T13:43:01.126Z,95044.31
2023-07-24T13:45:31.658Z,95040.91
2023-07-24T13:48:02.752Z,95020.66
2023-07-24T13:50:34.415Z,95016.78
2023-07-24T13:53:05.027Z,95010.59
2023-07-24T13:55:35.736Z,95002.53
2023-07-24T13:58:06.311Z,95015.56
2023-07-24T14:00:35.574Z,95011.94
2023-07-24T14:03:06.260Z,95011.47
2023-07-24T14:05:38.804Z,95022.88
2023-07-24T14:08:10.351Z,95026.16
2023-07-24T14:10:40.958Z,95025.19
2023-07-24T14:13:10.935Z,95028.28
2023-07-24T14:15:46.837Z,95034.22
2023-07-24T14:18:16.408Z,95034.41
2023-07-24T14:20:49.021Z,95030.44
2023-07-24T14:23:19.278Z,95034.34
2023-07-24T14:25:48.700Z,95037.81
2023-07-24T14:28:18.274Z,95038.56
2023-07-24T14:30:48.579Z,95035.41
2023-07-24T14:33:18.176Z,95010.81
2023-07-24T14:35:48.847Z,95015.84
2023-07-24T14:38:18.330Z,95019.75
2023-07-24T14:40:47.525Z,95010.03
2023-07-24T14:43:17.492Z,95009.22
2023-07-24T14:45:49.997Z,95007.53
2023-07-24T14:48:19.444Z,95017.44
2023-07-24T14:50:54.480Z,95029.38
2023-07-24T14:53:23.356Z,95039.66
2023-07-24T14:55:52.461Z,95040.94
2023-07-24T14:58:21.262Z,95047.94
2023-07-24T15:00:50.855Z,95053.00
2023-07-24T15:03:23.375Z,95057.00
2023-07-24T15:05:54.136Z,95047.00
2023-07-24T15:08:23.115Z,95042.22
2023-07-24T15:10:52.131Z,95034.06
2023-07-24T15:13:21.571Z,95026.38
2023-07-24T15:15:50.556Z,95030.63
2023-07-24T15:18:19.285Z,95029.09
2023-07-24T15:20:47.726Z,95027.53
2023-07-24T15:23:19.169Z,95017.97
2023-07-24T15:25:48.739Z,95026.47
2023-07-24T15:28:17.741Z,95019.06
2023-07-24T15:30:49.984Z,95018.00
2023-07-24T15:33:18.855Z,95023.59
2023-07-24T15:35:48.207Z,95027.28
2023-07-24T15:38:19.059Z,95030.47
2023-07-24T15:40:48.211Z,95030.22
2023-07-24T15:43:17.245Z,95033.09
2023-07-24T15:45:46.295Z,95041.03
2023-07-24T15:48:18.223Z,95033.88
2023-07-24T15:50:51.935Z,95030.97
2023-07-24T15:53:22.195Z,95015.06
2023-07-24T15:55:51.245Z,95006.56
2023-07-24T15:58:19.778Z,95013.38
2023-07-24T16:00:48.858Z,95018.03
2023-07-24T16:03:18.159Z,95022.47
2023-07-24T16:05:46.906Z,95029.03
2023-07-24T16:08:15.603Z,95023.97
2023-07-24T16:10:46.284Z,95017.63
2023-07-24T16:13:15.222Z,95014.44
2023-07-24T16:15:46.851Z,95009.63
2023-07-24T16:18:15.591Z,95006.63
2023-07-24T16:20:47.582Z,95025.81
2023-07-24T16:23:16.838Z,95042.69
2023-07-24T16:25:47.576Z,95061.84
2023-07-24T16:28:16.388Z,95067.31
2023-07-24T16:30:45.917Z,95083.03
2023-07-24T16:35:53.166Z,95127.66
2023-07-24T16:38:23.715Z,95166.84
2023-07-24T16:40:54.402Z,95231.28
2023-07-24T16:43:23.912Z,95244.56
2023-07-24T16:48:25.786Z,95174.41
2023-07-24T16:50:54.879Z,95161.72
2023-07-24T16:53:23.525Z,95172.66
2023-07-24T16:55:53.739Z,95199.66
2023-07-24T16:58:22.690Z,95212.00
2023-07-24T17:00:51.421Z,95255.47
2023-07-24T17:03:20.096Z,95247.06
2023-07-24T17:05:49.259Z,95226.88
2023-07-24T17:08:18.520Z,95191.41
2023-07-24T17:10:48.705Z,95158.19
2023-07-24T17:13:19.712Z,95144.44
2023-07-24T17:15:49.414Z,95116.91
2023-07-24T17:18:18.617Z,95096.13
2023-07-24T17:20:47.756Z,95122.69
2023-07-24T17:23:16.802Z,95106.16
2023-07-24T17:25:48.472Z,95082.22
2023-07-24T17:28:18.918Z,95086.28
2023-07-24T17:30:48.410Z,95072.16
2023-07-24T17:33:19.319Z,95060.47
2023-07-24T17:35:50.577Z,95061.91
2023-07-24T17:38:22.511Z,95050.16
2023-07-24T17:40:51.821Z,95058.91
2023-07-24T17:43:23.065Z,95077.72
2023-07-24T17:45:52.463Z,95076.41
2023-07-24T17:48:21.765Z,95079.41
2023-07-24T17:50:50.690Z,95075.84
2023-07-24T17:53:19.835Z,95089.88
2023-07-24T17:55:50.400Z,95088.72
2023-07-24T17:58:21.995Z,95088.72
2023-07-24T18:00:52.421Z,95082.63
2023-07-24T18:03:21.348Z,95086.06
2023-07-24T18:05:50.104Z,95104.44
2023-07-24T18:08:18.930Z,95089.34
2023-07-24T18:10:47.736Z,95098.47
2023-07-24T18:13:16.641Z,95103.72
2023-07-24T18:15:50.099Z,95098.50
2023-07-24T18:18:20.350Z,95088.25
2023-07-24T18:20:49.825Z,95088.88
2023-07-24T18:23:18.902Z,95081.84
2023-07-24T18:25:47.927Z,95095.28
2023-07-24T18:28:17.558Z,95106.91
2023-07-24T18:30:48.516Z,95111.09
2023-07-24T18:33:17.799Z,95113.13
2023-07-24T18:35:46.336Z,95124.19
2023-07-24T18:38:15.464Z,95125.81
2023-07-24T18:40:44.297Z,95124.81
2023-07-24T18:43:13.283Z,95123.03
2023-07-24T18:45:43.715Z,95126.44
2023-07-24T18:48:14.851Z,95140.50
2023-07-24T18:50:44.761Z,95153.72
2023-07-24T18:53:13.782Z,95170.75
2023-07-24T18:55:42.973Z,95167.13
2023-07-24T18:58:11.756Z,95177.56
2023-07-24T19:00:44.584Z,95173.16
2023-07-24T19:03:16.287Z,95172.97
2023-07-24T19:05:46.958Z,95190.97
2023-07-24T19:08:15.935Z,95198.16
2023-07-24T19:10:45.071Z,95192.94
2023-07-24T19:13:14.153Z,95182.75
2023-07-24T19:15:43.699Z,95181.53
2023-07-24T19:18:12.438Z,95171.53
2023-07-24T19:20:42.707Z,95156.94
2023-07-24T19:23:11.702Z,95162.75
2023-07-24T19:25:40.460Z,95155.78
2023-07-24T19:28:09.416Z,95152.56
2023-07-24T19:30:42.484Z,95155.13
2023-07-24T19:33:11.966Z,95146.34
2023-07-24T19:35:42.706Z,95147.69
2023-07-24T19:38:13.392Z,95142.69
2023-07-24T19:40:42.614Z,95163.28
2023-07-24T19:43:12.100Z,95184.69
2023-07-24T19:45:42.004Z,95180.09
2023-07-24T19:48:11.023Z,95178.31
2023-07-24T19:50:40.141Z,95168.72
2023-07-24T19:53:10.227Z,95177.75
2023-07-24T19:55:39.706Z,95168.31
2023-07-24T19:58:15.364Z,95176.34
2023-07-24T20:00:56.635Z,95183.72
2023-07-24T20:03:26.680Z,95188.50
2023-07-24T20:05:59.825Z,95200.28
2023-07-24T20:08:36.620Z,95203.72
2023-07-24T20:11:08.246Z,95209.97
2023-07-24T20:13:39.234Z,95208.56
2023-07-24T20:16:08.763Z,95203.78
2023-07-24T20:18:37.676Z,95195.59
2023-07-24T20:21:06.468Z,95186.38
2023-07-24T20:23:36.795Z,95189.38
2023-07-24T20:26:05.904Z,95184.19
2023-07-24T20:28:36.979Z,95175.97
2023-07-24T20:31:06.939Z,95176.97
2023-07-24T20:33:36.285Z,95169.78
2023-07-24T20:36:08.509Z,95158.56
2023-07-24T20:38:39.889Z,95162.56
2023-07-24T20:41:09.133Z,95165.75
2023-07-24T20:43:38.266Z,95163.94
2023-07-24T20:46:13.147Z,95169.97
2023-07-24T20:48:42.408Z,95149.53
2023-07-24T20:51:18.687Z,95149.13
2023-07-24T20:53:53.015Z,95158.16
2023-07-24T20:56:22.981Z,95157.53
2023-07-24T20:58:52.103Z,95158.94
2023-07-24T21:01:23.005Z,95168.97
2023-07-24T21:03:53.685Z,95163.97
2023-07-24T21:06:22.900Z,95150.34
2023-07-24T21:08:53.129Z,95134.16
2023-07-24T21:11:21.994Z,95128.53
2023-07-24T21:13:50.941Z,95111.94
2023-07-24T21:16:19.762Z,95109.13
2023-07-24T21:18:49.166Z,95130.75
2023-07-24T21:21:18.833Z,95125.16
2023-07-24T21:23:48.361Z,95120.50
2023-07-24T21:26:20.556Z,95126.34
2023-07-24T21:29:02.035Z,95134.34
2023-07-24T21:31:31.142Z,95124.53
2023-07-24T21:34:00.723Z,95130.94
2023-07-24T21:36:29.311Z,95122.16
2023-07-24T21:38:58.243Z,95118.31
2023-07-24T21:41:30.811Z,95114.31
2023-07-24T21:43:59.935Z,95119.91
2023-07-24T21:46:28.506Z,95113.94
2023-07-24T21:48:58.465Z,95115.13
2023-07-24T21:51:27.252Z,95114.91
2023-07-24T21:53:56.621Z,95117.31
2023-07-24T21:56:25.435Z,95116.31
2023-07-24T21:58:56.095Z,95115.13
2023-07-24T22:01:24.775Z,95113.91
2023-07-24T22:03:53.502Z,95106.69
2023-07-24T22:06:22.285Z,95109.28
2023-07-24T22:08:51.441Z,95105.72
2023-07-24T22:11:20.620Z,95106.72
2023-07-24T22:13:49.538Z,95100.69
2023-07-24T22:16:19.735Z,95105.31
2023-07-24T22:18:48.299Z,95105.50
2023-07-24T22:21:17.058Z,95118.31
2023-07-24T22:23:45.758Z,95119.94
2023-07-24T22:26:14.853Z,95125.34
2023-07-24T22:28:44.115Z,95127.75
2023-07-24T22:31:13.734Z,95123.94
2023-07-24T22:33:44.176Z,95134.13
2023-07-24T22:36:13.120Z,95139.13
2023-07-24T22:38:44.142Z,95138.34
2023-07-24T22:41:13.585Z,95142.16
2023-07-24T22:43:42.227Z,95147.13
2023-07-24T22:46:30.177Z,95153.94
2023-07-24T22:49:00.577Z,95139.50
2023-07-24T22:51:30.078Z,95141.69
2023-07-24T22:53:59.686Z,95139.50
2023-07-24T22:56:28.489Z,95141.31
2023-07-24T22:59:22.338Z,95144.13
2023-07-24T23:01:52.007Z,95150.53
2023-07-24T23:04:25.832Z,95146.09
2023-07-24T23:06:55.850Z,95146.50
2023-07-24T23:09:24.741Z,95137.88
2023-07-24T23:11:53.609Z,95128.88
2023-07-24T23:14:23.010Z,95128.47
2023-07-24T23:16:52.118Z,95140.31
2023-07-24T23:19:22.899Z,95146.13
2023-07-24T23:21:51.712Z,95145.91
2023-07-24T23:24:20.516Z,95139.69
2023-07-24T23:26:49.315Z,95150.31
2023-07-24T23:29:18.325Z,95144.72
2023-07-24T23:31:47.331Z,95145.13
2023-07-24T23:34:16.272Z,95154.34
2023-07-24T23:36:46.420Z,95155.16
2023-07-24T23:39:15.436Z,95148.75
2023-07-24T23:41:44.069Z,95153.53
2023-07-24T23:44:12.805Z,95170.94
2023-07-24T23:46:43.173Z,95173.16
2023-07-24T23:49:12.224Z,95173.16
2023-07-24T23:51:40.996Z,95181.16
2023-07-24T23:54:11.139Z,95178.97
2023-07-24T23:56:39.907Z,95171.78
2023-07-24T23:59:08.498Z,95166.56
